TimeEST,TemperatureF,Dew PointF,Humidity,Sea Level PressureIn,VisibilityMPH,Wind Direction,Wind SpeedMPH,Gust SpeedMPH,PrecipitationIn,Events,Conditions,WindDirDegrees,DateUTC
12:51 AM,61.0,51.1,70,29.80,10.0,SE,8.1,-,N/A,,Mostly Cloudy,140,2011-11-29 05:51:00
1:51 AM,62.1,51.1,67,29.75,10.0,SE,8.1,18.4,N/A,,Scattered Clouds,130,2011-11-29 06:51:00
2:51 AM,62.1,50.0,65,29.69,10.0,Variable,6.9,20.7,N/A,,Scattered Clouds,0,2011-11-29 07:51:00
3:51 AM,62.1,48.0,60,29.67,10.0,SE,10.4,35.7,N/A,,Mostly Cloudy,140,2011-11-29 08:51:00
4:51 AM,62.6,50.0,63,29.66,10.0,SE,10.4,33.4,N/A,Rain,Light Rain,130,2011-11-29 09:51:00
5:51 AM,60.8,53.6,77,29.63,10.0,SE,10.4,-,N/A,Rain,Light Rain,130,2011-11-29 10:51:00
6:51 AM,59.0,53.1,81,29.63,10.0,SSW,5.8,-,0.04,Rain,Light Rain,200,2011-11-29 11:51:00
7:51 AM,57.0,54.0,89,29.65,6.0,SSE,4.6,-,0.09,Rain,Rain,160,2011-11-29 12:51:00
8:51 AM,50.0,43.0,77,29.69,4.0,SW,4.6,-,0.09,Rain,Light Rain,220,2011-11-29 13:51:00
9:51 AM,50.0,44.1,80,29.65,10.0,SE,6.9,-,0.05,,Mostly Cloudy,140,2011-11-29 14:51:00
10:51 AM,53.1,37.9,57,29.68,10.0,SSE,13.8,27.6,N/A,,Scattered Clouds,160,2011-11-29 15:51:00
11:51 AM,55.0,36.0,49,29.65,10.0,South,9.2,17.3,N/A,,Partly Cloudy,180,2011-11-29 16:51:00
12:51 PM,55.0,34.0,45,29.64,10.0,SW,10.4,-,N/A,,Clear,220,2011-11-29 17:51:00
1:13 PM,48.2,39.2,71,29.64,10.0,NW,10.4,-,N/A,,Mostly Cloudy,310,2011-11-29 18:13:00
1:51 PM,51.1,39.0,63,29.64,10.0,NW,5.8,-,N/A,,Clear,320,2011-11-29 18:51:00
2:51 PM,48.9,37.9,66,29.64,10.0,WNW,10.4,-,N/A,,Scattered Clouds,300,2011-11-29 19:51:00
3:01 PM,46.4,37.4,71,29.63,10.0,NW,10.4,-,N/A,,Mostly Cloudy,320,2011-11-29 20:01:00
3:51 PM,46.0,37.0,71,29.65,10.0,NW,9.2,-,N/A,,Overcast,310,2011-11-29 20:51:00
4:51 PM,44.1,37.0,76,29.65,10.0,NW,8.1,-,N/A,,Overcast,310,2011-11-29 21:51:00
5:51 PM,43.0,36.0,76,29.65,10.0,NNW,3.5,-,0.00,Rain,Light Rain,330,2011-11-29 22:51:00
6:51 PM,39.0,34.0,82,29.70,6.0,West,9.2,-,0.07,Rain,Light Rain,280,2011-11-29 23:51:00
7:18 PM,33.8,32.0,93,29.69,3.0,Calm,Calm,-,0.09,Snow,Light Snow,0,2011-11-30 00:18:00
7:32 PM,33.8,32.0,93,29.70,2.0,Calm,Calm,-,0.14,Snow,Light Snow,0,2011-11-30 00:32:00
7:45 PM,33.8,32.0,93,29.70,2.5,Calm,Calm,-,0.15,Snow,Light Snow,0,2011-11-30 00:45:00
7:51 PM,33.1,30.9,92,29.73,2.5,Calm,Calm,-,0.16,Snow,Light Snow,0,2011-11-30 00:51:00
8:07 PM,33.8,30.2,87,29.70,3.0,Calm,Calm,-,N/A,Snow,Light Snow,0,2011-11-30 01:07:00
8:12 PM,33.8,32.0,93,29.70,2.5,Calm,Calm,-,0.02,Snow,Light Snow,0,2011-11-30 01:12:00
8:31 PM,33.8,32.0,93,29.70,2.5,Calm,Calm,-,0.03,Snow,Light Snow,0,2011-11-30 01:31:00
8:51 PM,33.1,32.0,96,29.75,2.5,Calm,Calm,-,0.06,Snow,Light Snow,0,2011-11-30 01:51:00
8:59 PM,33.8,32.0,93,29.71,3.0,Calm,Calm,-,0.00,Snow,Light Snow,0,2011-11-30 01:59:00
9:08 PM,33.8,32.0,93,29.71,3.0,Calm,Calm,-,0.00,Snow,Light Snow,0,2011-11-30 02:08:00
9:15 PM,33.8,32.0,93,29.71,3.0,Calm,Calm,-,0.01,Snow,Light Snow,0,2011-11-30 02:15:00
9:49 PM,33.8,32.0,93,29.70,6.0,Calm,Calm,-,0.02,Snow,Light Snow,0,2011-11-30 02:49:00
9:51 PM,33.1,32.0,96,29.74,7.0,Calm,Calm,-,0.02,Snow,Light Snow,0,2011-11-30 02:51:00
10:08 PM,33.8,32.0,93,29.70,10.0,Calm,Calm,-,0.00,,Overcast,0,2011-11-30 03:08:00
10:25 PM,33.8,32.0,93,29.70,10.0,Calm,Calm,-,0.00,,Overcast,0,2011-11-30 03:25:00
10:51 PM,35.1,30.9,85,29.73,10.0,SW,4.6,-,0.00,,Mostly Cloudy,230,2011-11-30 03:51:00
11:51 PM,36.0,28.0,73,29.73,10.0,WSW,10.4,17.3,N/A,,Overcast,240,2011-11-30 04:51:00